San Diego, California
Traffic Map
Current Weather Conditions
San Diego, California
Broken Clouds
Broken Clouds
63°
Feels Like: 63°
Wind Chill: 63° Ceiling: 20000
Heat Index: 63° Visibility: 10mi
Dew Point: 52° Wind: 5mph
Humidity: 67% Direction: 280° (W)
Pressure: 29.94in Gusts: 0mph
Raw Report DataKSAN 311851Z 28004KT 10SM SCT015 SCT025 BKN200 17/11 A2994 RMK AO2 SLP137 T01720111
Traffic Incident Summary
Active as of:
Severity:
Category:
InformationThere was an issue retrieving the traffic information for this location. Please try a different location or try again shortly.
Advertisements
Track Severe Weather on mobile